Atmore, Alabama
Current Conditions -  °F | °C
As of 7:56 AM on Friday 19 Dec 2014 (Local Time) from KNSE Reporting Station
Overcast Overcast  
Wind Chill: 10°   Ceiling: 2500
Heat Index: 10°   Visibility: 10mi
Dew Point:   Wind: 3mph
Humidity: 63%   Direction: NA
Pressure: 30.17"   Gusts: NA
Location:  31.03°N, 87.49°W
Report Text: KNSE 191356Z VRB03KT 10SM BKN025 BKN046 OVC070 10/03 A3017 RMK AO2 SLP205 VCSH S-W T01000033
Loading
Personal Weather Stations






























Interactive Weather Map New forecast layout! Learn more

10-Day Weather Forecast

Advertisements
Track Severe Weather on mobile